createdAt,value
2019-05-20T00:01:08.180Z,14.15
2019-05-20T00:03:35.571Z,14.02
2019-05-20T00:06:02.989Z,14.10
2019-05-20T00:08:30.205Z,13.97
2019-05-20T00:10:57.489Z,13.92
2019-05-20T00:13:24.851Z,13.94
2019-05-20T00:15:52.163Z,14.00
2019-05-20T00:18:19.506Z,13.89
2019-05-20T00:20:46.633Z,13.80
2019-05-20T00:23:13.914Z,13.89
2019-05-20T00:25:41.328Z,13.93
2019-05-20T00:28:08.578Z,13.87
2019-05-20T00:30:36.008Z,13.89
2019-05-20T00:33:03.421Z,13.82
2019-05-20T00:35:30.859Z,13.64
2019-05-20T00:38:00.261Z,13.46
2019-05-20T00:40:27.520Z,13.52
2019-05-20T00:42:54.692Z,13.51
2019-05-20T00:45:22.059Z,13.39
2019-05-20T00:47:49.211Z,13.38
2019-05-20T00:50:16.786Z,13.47
2019-05-20T00:52:44.258Z,13.47
2019-05-20T00:55:27.875Z,13.41
2019-05-20T00:57:55.226Z,13.27
2019-05-20T01:00:23.406Z,13.28
2019-05-20T01:02:56.773Z,13.29
2019-05-20T01:05:20.197Z,13.29
2019-05-20T01:07:47.795Z,13.29
2019-05-20T01:10:15.766Z,13.35
2019-05-20T01:12:43.151Z,13.17
2019-05-20T01:15:10.980Z,13.25
2019-05-20T01:17:38.290Z,13.23
2019-05-20T01:20:06.415Z,13.16
2019-05-20T01:22:36.991Z,13.14
2019-05-20T01:25:04.785Z,13.08
2019-05-20T01:27:33.089Z,13.06
2019-05-20T01:30:00.463Z,13.03
2019-05-20T01:32:27.720Z,13.02
2019-05-20T01:34:55.089Z,12.99
2019-05-20T01:37:22.402Z,12.87
2019-05-20T01:39:49.660Z,12.68
2019-05-20T01:42:16.923Z,12.75
2019-05-20T01:44:44.319Z,12.79
2019-05-20T01:47:16.537Z,12.83
2019-05-20T01:49:44.493Z,12.77
2019-05-20T01:52:12.613Z,12.72
2019-05-20T01:54:43.458Z,12.80
2019-05-20T01:57:10.661Z,12.71
2019-05-20T01:59:37.861Z,12.66
2019-05-20T02:02:05.217Z,12.69
2019-05-20T02:04:33.380Z,12.65
2019-05-20T02:07:02.248Z,12.63
2019-05-20T02:09:30.650Z,12.64
2019-05-20T02:11:58.034Z,12.71
2019-05-20T02:14:28.001Z,12.63
2019-05-20T02:16:56.018Z,12.63
2019-05-20T02:19:23.879Z,12.63
2019-05-20T02:21:52.508Z,12.72
2019-05-20T02:24:20.590Z,12.68
2019-05-20T02:26:47.860Z,12.67
2019-05-20T02:29:15.028Z,12.61
2019-05-20T02:31:42.208Z,12.54
2019-05-20T02:34:09.567Z,12.45
2019-05-20T02:36:36.843Z,12.53
2019-05-20T02:39:05.370Z,12.47
2019-05-20T02:41:32.846Z,12.50
2019-05-20T02:44:00.326Z,12.47
2019-05-20T02:46:27.597Z,12.41
2019-05-20T02:48:54.834Z,12.42
2019-05-20T02:51:32.254Z,12.39
2019-05-20T02:54:03.526Z,12.36
2019-05-20T02:56:32.104Z,12.30
2019-05-20T02:59:04.290Z,12.35
2019-05-20T03:01:34.008Z,12.29
2019-05-20T03:04:11.524Z,12.30
2019-05-20T03:06:33.027Z,12.35
2019-05-20T03:09:00.490Z,12.31
2019-05-20T03:11:27.748Z,12.34
2019-05-20T03:13:55.036Z,12.25
2019-05-20T03:16:22.188Z,12.29
2019-05-20T03:18:49.604Z,12.26
2019-05-20T03:21:16.829Z,12.28
2019-05-20T03:23:44.085Z,12.34
2019-05-20T03:26:11.484Z,12.27
2019-05-20T03:28:43.099Z,12.16
2019-05-20T03:31:10.569Z,12.20
2019-05-20T03:33:37.829Z,12.26
2019-05-20T03:36:05.461Z,12.21
2019-05-20T03:38:32.803Z,12.23
2019-05-20T03:41:00.077Z,12.23
2019-05-20T03:43:27.378Z,12.20
2019-05-20T03:45:54.806Z,12.27
2019-05-20T03:48:22.170Z,12.36
2019-05-20T03:50:49.633Z,12.27
2019-05-20T03:53:17.137Z,12.25
2019-05-20T03:55:44.321Z,12.27
2019-05-20T03:58:13.677Z,12.34
2019-05-20T04:00:43.804Z,12.39
2019-05-20T04:03:11.909Z,12.44
2019-05-20T04:05:39.815Z,12.43
2019-05-20T04:08:07.303Z,12.48
2019-05-20T04:10:34.555Z,12.47
2019-05-20T04:13:01.962Z,12.52
2019-05-20T04:15:29.429Z,12.60
2019-05-20T04:17:56.800Z,12.60
2019-05-20T04:20:24.155Z,12.64
2019-05-20T04:22:51.524Z,12.73
2019-05-20T04:25:18.901Z,12.70
2019-05-20T04:27:46.343Z,12.76
2019-05-20T04:30:18.691Z,12.80
2019-05-20T04:32:44.138Z,12.84
2019-05-20T04:35:21.974Z,12.91
2019-05-20T04:37:40.866Z,13.03
2019-05-20T04:40:09.133Z,13.09
2019-05-20T04:42:36.739Z,13.18
2019-05-20T04:45:06.413Z,13.30
2019-05-20T04:47:33.599Z,13.43
2019-05-20T04:50:00.838Z,13.52
2019-05-20T04:52:28.107Z,13.65
2019-05-20T04:54:55.399Z,13.79
2019-05-20T04:57:22.663Z,13.99
2019-05-20T04:59:50.009Z,14.13
2019-05-20T05:02:17.233Z,14.23
2019-05-20T05:04:44.478Z,14.38
2019-05-20T05:07:11.962Z,14.51
2019-05-20T05:09:39.345Z,14.65
2019-05-20T05:12:06.592Z,14.82
2019-05-20T05:14:34.054Z,14.90
2019-05-20T05:17:01.429Z,15.06
2019-05-20T05:19:29.101Z,15.12
2019-05-20T05:21:56.458Z,15.28
2019-05-20T05:24:23.908Z,15.36
2019-05-20T05:26:51.481Z,15.41
2019-05-20T05:29:18.992Z,15.48
2019-05-20T05:31:46.458Z,15.61
2019-05-20T05:34:13.954Z,15.76
2019-05-20T05:36:41.427Z,15.88
2019-05-20T05:39:08.850Z,16.10
2019-05-20T05:41:36.157Z,16.18
2019-05-20T05:44:03.695Z,16.27
2019-05-20T05:46:30.856Z,16.38
2019-05-20T05:48:58.103Z,16.48
2019-05-20T05:51:25.573Z,16.52
2019-05-20T05:53:52.873Z,16.68
2019-05-20T05:56:20.129Z,16.86
2019-05-20T05:58:50.788Z,16.99
2019-05-20T06:01:18.252Z,16.95
2019-05-20T06:03:45.771Z,17.08
2019-05-20T06:06:13.707Z,17.21
2019-05-20T06:08:41.098Z,17.38
2019-05-20T06:11:08.487Z,17.54
2019-05-20T06:13:35.888Z,17.71
2019-05-20T06:16:03.360Z,17.80
2019-05-20T06:18:30.530Z,17.92
2019-05-20T06:20:57.919Z,18.15
2019-05-20T06:23:25.330Z,18.28
2019-05-20T06:25:52.613Z,18.49
2019-05-20T06:28:20.057Z,18.55
2019-05-20T06:30:47.812Z,18.56
2019-05-20T06:33:15.173Z,18.56
2019-05-20T06:35:42.871Z,18.60
2019-05-20T06:38:32.924Z,18.67
2019-05-20T06:41:00.328Z,18.79
2019-05-20T06:43:28.063Z,18.89
2019-05-20T06:45:55.499Z,18.94
2019-05-20T06:48:22.904Z,18.91
2019-05-20T06:50:57.541Z,19.00
2019-05-20T06:53:24.964Z,19.04
2019-05-20T06:55:52.370Z,19.02
2019-05-20T06:58:19.653Z,18.99
2019-05-20T07:00:47.142Z,18.95
2019-05-20T07:03:14.523Z,19.08
2019-05-20T07:05:41.817Z,19.15
2019-05-20T07:08:09.323Z,19.33
2019-05-20T07:10:36.791Z,19.44
2019-05-20T07:13:04.415Z,19.53
2019-05-20T07:15:31.864Z,19.65
2019-05-20T07:17:59.495Z,19.67
2019-05-20T07:20:26.646Z,19.90
2019-05-20T07:22:56.238Z,20.00
2019-05-20T07:25:23.978Z,20.17
2019-05-20T07:27:51.820Z,20.24
2019-05-20T07:30:19.395Z,20.18
2019-05-20T07:32:46.566Z,20.17
2019-05-20T07:35:28.783Z,20.32
2019-05-20T07:37:43.340Z,20.45
2019-05-20T07:40:12.569Z,20.57
2019-05-20T07:42:40.047Z,20.56
2019-05-20T07:45:08.166Z,20.68
2019-05-20T07:47:35.771Z,20.56
2019-05-20T07:50:03.675Z,20.64
2019-05-20T07:52:31.255Z,20.66
2019-05-20T07:54:59.637Z,20.67
2019-05-20T07:57:33.405Z,20.80
2019-05-20T08:00:01.066Z,20.99
2019-05-20T08:02:29.242Z,21.09
2019-05-20T08:04:56.633Z,21.18
2019-05-20T08:07:27.857Z,21.42
2019-05-20T08:09:53.330Z,21.83
2019-05-20T08:12:20.821Z,21.96
2019-05-20T08:14:51.179Z,22.38
2019-05-20T08:17:19.774Z,22.61
2019-05-20T08:19:47.342Z,22.81
2019-05-20T08:22:14.838Z,23.16
2019-05-20T08:24:42.563Z,23.61
2019-05-20T08:27:10.286Z,23.78
2019-05-20T08:29:37.919Z,24.25
2019-05-20T08:32:08.189Z,24.46
2019-05-20T08:34:36.310Z,24.62
2019-05-20T08:37:04.451Z,24.83
2019-05-20T08:39:31.757Z,24.87
2019-05-20T08:42:00.389Z,24.97
2019-05-20T08:44:27.672Z,24.91
2019-05-20T08:46:55.016Z,25.07
2019-05-20T08:49:22.675Z,25.35
2019-05-20T08:51:50.104Z,25.39
2019-05-20T08:54:17.654Z,25.37
2019-05-20T08:56:44.852Z,25.39
2019-05-20T08:59:12.307Z,25.45
2019-05-20T09:01:39.774Z,25.62
2019-05-20T09:04:07.230Z,25.75
2019-05-20T09:06:34.585Z,25.79
2019-05-20T09:09:04.614Z,25.79
2019-05-20T09:11:32.027Z,26.01
2019-05-20T09:13:59.209Z,25.75
2019-05-20T09:16:26.706Z,25.83
2019-05-20T09:18:54.245Z,25.71
2019-05-20T09:21:21.656Z,25.70
2019-05-20T09:23:49.213Z,25.67
2019-05-20T09:26:16.705Z,25.55
2019-05-20T09:28:44.073Z,25.72
2019-05-20T09:31:12.377Z,25.91
2019-05-20T09:33:40.216Z,25.85
2019-05-20T09:36:07.658Z,25.86
2019-05-20T09:38:37.131Z,25.94
2019-05-20T09:41:04.498Z,26.03
2019-05-20T09:43:32.164Z,26.23
2019-05-20T09:46:07.840Z,26.35
2019-05-20T09:48:28.793Z,26.20
2019-05-20T09:50:56.159Z,26.44
2019-05-20T09:53:23.413Z,26.39
2019-05-20T09:55:50.752Z,26.40
2019-05-20T09:58:18.214Z,26.37
2019-05-20T10:00:48.373Z,26.44
2019-05-20T10:03:15.791Z,26.49
2019-05-20T10:05:43.954Z,26.37
2019-05-20T10:08:14.109Z,26.27
2019-05-20T10:10:44.257Z,25.92
2019-05-20T10:13:11.708Z,25.74
2019-05-20T10:15:39.464Z,25.66
2019-05-20T10:18:06.978Z,25.55
2019-05-20T10:20:34.449Z,25.38
2019-05-20T10:23:01.937Z,25.17
2019-05-20T10:25:29.484Z,24.93
2019-05-20T10:27:57.834Z,24.48
2019-05-20T10:30:27.694Z,23.53
2019-05-20T10:32:55.106Z,23.04
2019-05-20T10:35:22.707Z,22.98
2019-05-20T10:37:50.375Z,22.80
2019-05-20T10:40:18.277Z,22.72
2019-05-20T10:42:46.170Z,22.47
2019-05-20T10:45:13.813Z,22.52
2019-05-20T10:47:41.228Z,22.52
2019-05-20T10:50:08.925Z,22.36
2019-05-20T10:52:36.370Z,22.35
2019-05-20T10:55:04.653Z,22.18
2019-05-20T10:57:32.053Z,22.21
2019-05-20T11:00:01.282Z,21.97
2019-05-20T11:02:31.217Z,22.04
2019-05-20T11:05:00.564Z,21.91
2019-05-20T11:07:28.134Z,21.94
2019-05-20T11:09:55.549Z,21.92
2019-05-20T11:12:22.938Z,21.85
2019-05-20T11:14:50.216Z,21.92
2019-05-20T11:17:17.770Z,22.00
2019-05-20T11:19:45.236Z,21.67
2019-05-20T11:22:14.363Z,21.94
2019-05-20T11:24:41.897Z,22.01
2019-05-20T11:27:09.487Z,22.09
2019-05-20T11:29:36.877Z,22.13
2019-05-20T11:32:04.386Z,22.17
2019-05-20T11:34:31.698Z,22.18
2019-05-20T11:36:59.140Z,22.25
2019-05-20T11:39:33.119Z,22.32
2019-05-20T11:41:55.754Z,22.34
2019-05-20T11:44:23.182Z,22.42
2019-05-20T11:46:50.398Z,22.53
2019-05-20T11:49:17.905Z,22.67
2019-05-20T11:51:45.534Z,22.61
2019-05-20T11:54:13.031Z,22.71
2019-05-20T11:56:40.322Z,22.95
2019-05-20T11:59:07.757Z,23.18
2019-05-20T12:01:35.569Z,23.30
2019-05-20T12:04:05.514Z,23.37
2019-05-20T12:06:33.057Z,23.39
2019-05-20T12:09:00.253Z,23.31
2019-05-20T12:11:27.724Z,23.42
2019-05-20T12:13:55.228Z,23.29
2019-05-20T12:16:22.971Z,23.30
2019-05-20T12:18:53.376Z,23.21
2019-05-20T12:21:23.090Z,23.38
2019-05-20T12:23:50.283Z,23.58
2019-05-20T12:26:17.711Z,23.79
2019-05-20T12:28:45.339Z,23.90
2019-05-20T12:31:16.942Z,24.20
2019-05-20T12:33:44.295Z,24.56
2019-05-20T12:36:12.058Z,24.76
2019-05-20T12:38:39.372Z,24.73
2019-05-20T12:41:06.864Z,24.74
2019-05-20T12:43:34.073Z,24.77
2019-05-20T12:46:01.415Z,24.89
2019-05-20T12:48:28.777Z,25.01
2019-05-20T12:50:56.054Z,25.16
2019-05-20T12:53:23.311Z,24.95
2019-05-20T12:55:50.775Z,25.09
2019-05-20T12:58:18.273Z,24.65
2019-05-20T13:00:45.941Z,24.48
2019-05-20T13:03:13.169Z,24.38
2019-05-20T13:05:40.559Z,24.26
2019-05-20T13:08:07.884Z,24.18
2019-05-20T13:10:36.951Z,24.17
2019-05-20T13:13:07.472Z,24.09
2019-05-20T13:15:35.643Z,23.80
2019-05-20T13:18:03.247Z,23.75
2019-05-20T13:20:30.661Z,23.58
2019-05-20T13:22:58.367Z,23.68
2019-05-20T13:25:25.953Z,23.64
2019-05-20T13:27:53.116Z,23.74
2019-05-20T13:30:22.945Z,23.79
2019-05-20T13:32:50.331Z,23.76
2019-05-20T13:35:18.556Z,23.76
2019-05-20T13:37:46.364Z,23.69
2019-05-20T13:40:14.209Z,23.51
2019-05-20T13:42:41.483Z,23.25
2019-05-20T13:45:22.709Z,22.83
2019-05-20T13:47:50.399Z,22.71
2019-05-20T13:50:26.115Z,22.40
2019-05-20T13:52:53.376Z,21.85
2019-05-20T13:55:20.965Z,21.77
2019-05-20T13:57:48.254Z,21.97
2019-05-20T14:00:16.050Z,21.92
2019-05-20T14:02:44.156Z,22.01
2019-05-20T14:05:16.892Z,22.10
2019-05-20T14:07:44.500Z,22.01
2019-05-20T14:10:12.517Z,22.13
2019-05-20T14:12:39.900Z,22.08
2019-05-20T14:15:15.020Z,22.05
2019-05-20T14:17:45.972Z,22.05
2019-05-20T14:20:22.105Z,22.04
2019-05-20T14:22:59.372Z,22.01
2019-05-20T14:25:29.243Z,22.03
2019-05-20T14:27:56.468Z,22.06
2019-05-20T14:30:24.152Z,21.89
2019-05-20T14:32:54.514Z,21.89
2019-05-20T14:35:21.861Z,21.89
2019-05-20T14:37:49.966Z,21.91
2019-05-20T14:40:17.680Z,21.89
2019-05-20T14:42:45.257Z,21.71
2019-05-20T14:45:12.818Z,21.70
2019-05-20T14:47:41.589Z,21.75
2019-05-20T14:50:10.467Z,21.77
2019-05-20T14:52:39.336Z,21.62
2019-05-20T14:55:14.760Z,21.52
2019-05-20T14:57:43.048Z,21.45
2019-05-20T15:00:11.604Z,21.08
2019-05-20T15:02:38.773Z,20.68
2019-05-20T15:05:07.350Z,20.42
2019-05-20T15:07:34.532Z,20.65
2019-05-20T15:10:03.365Z,20.69
2019-05-20T15:12:31.273Z,20.40
2019-05-20T15:15:02.328Z,20.41
2019-05-20T15:17:29.861Z,20.23
2019-05-20T15:19:57.225Z,20.15
2019-05-20T15:22:24.712Z,20.12
2019-05-20T15:24:52.099Z,20.13
2019-05-20T15:27:19.903Z,20.02
2019-05-20T15:29:48.251Z,19.98
2019-05-20T15:32:15.590Z,19.83
2019-05-20T15:34:42.778Z,19.77
2019-05-20T15:37:09.968Z,19.69
2019-05-20T15:39:37.275Z,19.75
2019-05-20T15:42:05.004Z,19.59
2019-05-20T15:44:32.284Z,19.48
2019-05-20T15:46:59.844Z,19.39
2019-05-20T15:49:27.398Z,19.19
2019-05-20T15:51:54.645Z,19.10
2019-05-20T15:54:22.638Z,19.11
2019-05-20T15:56:51.116Z,18.73
2019-05-20T15:59:19.071Z,18.61
2019-05-20T16:01:48.776Z,18.51
2019-05-20T16:04:16.313Z,18.48
2019-05-20T16:06:43.820Z,18.44
2019-05-20T16:09:11.600Z,18.45
2019-05-20T16:11:50.129Z,18.41
2019-05-20T16:14:17.582Z,18.36
2019-05-20T16:16:44.934Z,18.06
2019-05-20T16:19:14.124Z,18.09
2019-05-20T16:21:41.416Z,17.92
2019-05-20T16:24:08.829Z,17.87
2019-05-20T16:26:36.413Z,17.83
2019-05-20T16:29:03.834Z,17.67
2019-05-20T16:31:31.232Z,17.51
2019-05-20T16:33:59.731Z,17.50
2019-05-20T16:36:28.281Z,17.58
2019-05-20T16:38:56.429Z,17.56
2019-05-20T16:41:32.803Z,17.54
2019-05-20T16:44:01.248Z,17.54
2019-05-20T16:46:28.600Z,17.54
2019-05-20T16:48:55.873Z,17.49
2019-05-20T16:51:23.669Z,17.26
2019-05-20T16:53:50.951Z,17.29
2019-05-20T16:56:18.329Z,17.35
2019-05-20T16:58:45.660Z,17.27
2019-05-20T17:01:14.906Z,17.28
2019-05-20T17:03:42.688Z,17.14
2019-05-20T17:06:10.385Z,17.04
2019-05-20T17:08:37.709Z,17.11
2019-05-20T17:11:05.214Z,17.12
2019-05-20T17:13:32.558Z,17.06
2019-05-20T17:16:00.057Z,16.88
2019-05-20T17:18:27.639Z,16.96
2019-05-20T17:20:54.943Z,16.65
2019-05-20T17:23:22.740Z,16.74
2019-05-20T17:25:50.923Z,16.67
2019-05-20T17:28:18.623Z,16.67
2019-05-20T17:30:46.674Z,16.71
2019-05-20T17:33:14.105Z,16.64
2019-05-20T17:35:41.586Z,16.63
2019-05-20T17:38:09.067Z,16.59
2019-05-20T17:40:36.578Z,16.63
2019-05-20T17:43:04.624Z,16.54
2019-05-20T17:45:32.142Z,16.39
2019-05-20T17:47:59.645Z,16.41
2019-05-20T17:50:27.110Z,16.30
2019-05-20T17:52:54.390Z,16.45
2019-05-20T17:55:22.019Z,16.44
2019-05-20T17:57:49.332Z,16.41
2019-05-20T18:00:20.429Z,16.44
2019-05-20T18:02:47.953Z,16.49
2019-05-20T18:05:15.853Z,16.39
2019-05-20T18:07:43.353Z,16.33
2019-05-20T18:10:11.441Z,16.34
2019-05-20T18:12:38.711Z,16.29
2019-05-20T18:15:07.229Z,16.26
2019-05-20T18:17:34.731Z,16.16
2019-05-20T18:20:03.279Z,16.23
2019-05-20T18:22:30.797Z,16.13
2019-05-20T18:24:58.111Z,16.16
2019-05-20T18:27:25.652Z,16.16
2019-05-20T18:29:53.177Z,16.09
2019-05-20T18:32:20.805Z,15.96
2019-05-20T18:34:48.303Z,16.00
2019-05-20T18:37:15.690Z,15.96
2019-05-20T18:39:43.100Z,15.83
2019-05-20T18:42:11.155Z,15.88
2019-05-20T18:44:38.618Z,15.79
2019-05-20T18:47:08.833Z,15.76
2019-05-20T18:49:41.132Z,15.76
2019-05-20T18:52:07.306Z,15.70
2019-05-20T18:54:34.686Z,15.55
2019-05-20T18:57:02.088Z,15.67
2019-05-20T18:59:29.381Z,15.46
2019-05-20T19:02:05.122Z,15.47
2019-05-20T19:04:26.088Z,15.53
2019-05-20T19:07:02.208Z,15.48
2019-05-20T19:09:29.592Z,15.47
2019-05-20T19:11:56.870Z,15.43
2019-05-20T19:14:24.303Z,15.47
2019-05-20T19:16:51.747Z,15.39
2019-05-20T19:19:19.196Z,15.25
2019-05-20T19:21:46.601Z,15.32
2019-05-20T19:24:14.048Z,15.33
2019-05-20T19:26:41.478Z,15.33
2019-05-20T19:29:09.100Z,15.26
2019-05-20T19:31:37.872Z,15.24
2019-05-20T19:34:05.401Z,15.24
2019-05-20T19:36:33.689Z,15.20
2019-05-20T19:39:01.130Z,15.21
2019-05-20T19:41:28.414Z,15.19
2019-05-20T19:43:58.744Z,15.22
2019-05-20T19:46:26.275Z,15.16
2019-05-20T19:48:53.444Z,15.14
2019-05-20T19:51:21.008Z,15.07
2019-05-20T19:53:48.251Z,15.08
2019-05-20T19:56:15.553Z,15.14
2019-05-20T19:58:42.807Z,15.13
2019-05-20T20:01:10.370Z,15.13
2019-05-20T20:03:37.650Z,15.14
2019-05-20T20:06:06.979Z,15.11
2019-05-20T20:08:34.161Z,15.12
2019-05-20T20:11:01.681Z,15.07
2019-05-20T20:13:34.189Z,15.05
2019-05-20T20:16:00.606Z,15.11
2019-05-20T20:18:27.951Z,15.02
2019-05-20T20:20:55.876Z,15.07
2019-05-20T20:23:23.169Z,15.06
2019-05-20T20:25:51.077Z,15.05
2019-05-20T20:28:18.494Z,15.02
2019-05-20T20:30:52.526Z,15.00
2019-05-20T20:33:19.862Z,15.05
2019-05-20T20:35:47.146Z,15.00
2019-05-20T20:38:14.550Z,15.05
2019-05-20T20:40:42.149Z,14.90
2019-05-20T20:43:10.077Z,15.00
2019-05-20T20:45:37.608Z,14.95
2019-05-20T20:48:06.584Z,14.95
2019-05-20T20:50:33.929Z,14.94
2019-05-20T20:53:01.384Z,14.93
2019-05-20T20:55:28.909Z,14.93
2019-05-20T20:57:56.243Z,14.98
2019-05-20T21:00:23.877Z,14.97
2019-05-20T21:02:53.545Z,14.90
2019-05-20T21:05:20.714Z,15.00
2019-05-20T21:07:51.540Z,14.90
2019-05-20T21:10:17.580Z,14.91
2019-05-20T21:12:45.089Z,14.92
2019-05-20T21:15:12.939Z,14.95
2019-05-20T21:17:40.116Z,14.92
2019-05-20T21:20:08.003Z,14.90
2019-05-20T21:22:35.277Z,14.91
2019-05-20T21:25:02.985Z,14.87
2019-05-20T21:27:30.372Z,14.84
2019-05-20T21:29:57.526Z,14.86
2019-05-20T21:32:25.257Z,14.86
2019-05-20T21:34:52.897Z,14.85
2019-05-20T21:37:20.200Z,14.84
2019-05-20T21:39:51.243Z,14.82
2019-05-20T21:42:19.153Z,14.85
2019-05-20T21:44:48.118Z,14.78
2019-05-20T21:47:16.133Z,14.78
2019-05-20T21:49:44.542Z,14.73
2019-05-20T21:52:17.461Z,14.78
2019-05-20T21:54:44.764Z,14.82
2019-05-20T21:57:12.468Z,14.79
2019-05-20T21:59:40.521Z,14.83
2019-05-20T22:02:08.808Z,14.79
2019-05-20T22:04:36.579Z,14.85
2019-05-20T22:07:04.221Z,14.76
2019-05-20T22:09:31.897Z,14.83
2019-05-20T22:12:00.363Z,14.81
2019-05-20T22:14:28.168Z,14.81
2019-05-20T22:16:57.957Z,14.85
2019-05-20T22:19:27.439Z,14.85
2019-05-20T22:22:13.805Z,14.84
2019-05-20T22:24:43.913Z,14.80
2019-05-20T22:27:11.269Z,14.88
2019-05-20T22:29:39.941Z,14.82
2019-05-20T22:32:08.907Z,14.78
2019-05-20T22:34:37.674Z,14.80
2019-05-20T22:37:07.012Z,14.85
2019-05-20T22:39:35.106Z,14.83
2019-05-20T22:42:09.807Z,14.83
2019-05-20T22:44:38.516Z,14.81
2019-05-20T22:47:06.635Z,14.77
2019-05-20T22:49:34.224Z,14.71
2019-05-20T22:52:02.049Z,14.75
2019-05-20T22:54:29.340Z,14.75
2019-05-20T22:56:56.916Z,14.73
2019-05-20T22:59:24.090Z,14.74
2019-05-20T23:01:51.549Z,14.73
2019-05-20T23:04:18.988Z,14.70
2019-05-20T23:06:46.562Z,14.66
2019-05-20T23:09:14.970Z,14.65
2019-05-20T23:11:42.492Z,14.67
2019-05-20T23:14:10.168Z,14.64
2019-05-20T23:16:37.423Z,14.61
2019-05-20T23:19:04.729Z,14.63
2019-05-20T23:21:31.997Z,14.62
2019-05-20T23:23:59.519Z,14.60
2019-05-20T23:26:27.382Z,14.59
2019-05-20T23:28:54.937Z,14.65
2019-05-20T23:31:22.336Z,14.54
2019-05-20T23:33:49.870Z,14.54
2019-05-20T23:36:17.446Z,14.55
2019-05-20T23:38:45.118Z,14.57
2019-05-20T23:41:13.046Z,14.48
2019-05-20T23:43:40.210Z,14.52
2019-05-20T23:46:07.928Z,14.52
2019-05-20T23:48:35.879Z,14.46
2019-05-20T23:51:03.341Z,14.47
2019-05-20T23:53:30.909Z,14.51
2019-05-20T23:55:58.155Z,14.46
2019-05-20T23:58:25.531Z,14.44
